sensor_id;sensor_type;location;lat;lon;timestamp;temperature;humidity
44111;DHT22;29774;52.664;5.074;2022-07-03T00:00:23;15.10;81.60
44111;DHT22;29774;52.664;5.074;2022-07-03T00:02:49;15.10;81.30
44111;DHT22;29774;52.664;5.074;2022-07-03T00:05:14;15.00;80.10
44111;DHT22;29774;52.664;5.074;2022-07-03T00:07:40;15.00;81.70
44111;DHT22;29774;52.664;5.074;2022-07-03T00:10:06;14.90;81.80
44111;DHT22;29774;52.664;5.074;2022-07-03T00:12:32;14.80;81.70
44111;DHT22;29774;52.664;5.074;2022-07-03T00:14:57;14.90;82.10
44111;DHT22;29774;52.664;5.074;2022-07-03T00:17:23;14.80;82.30
44111;DHT22;29774;52.664;5.074;2022-07-03T00:19:49;14.80;81.90
44111;DHT22;29774;52.664;5.074;2022-07-03T00:22:14;14.80;82.00
44111;DHT22;29774;52.664;5.074;2022-07-03T00:24:44;15.00;82.50
44111;DHT22;29774;52.664;5.074;2022-07-03T00:27:10;15.00;82.50
44111;DHT22;29774;52.664;5.074;2022-07-03T00:29:39;14.80;81.60
44111;DHT22;29774;52.664;5.074;2022-07-03T00:32:08;14.90;82.10
44111;DHT22;29774;52.664;5.074;2022-07-03T00:34:35;14.80;82.60
44111;DHT22;29774;52.664;5.074;2022-07-03T00:37:01;14.90;83.00
44111;DHT22;29774;52.664;5.074;2022-07-03T00:39:27;14.80;82.30
44111;DHT22;29774;52.664;5.074;2022-07-03T00:42:04;14.70;82.90
44111;DHT22;29774;52.664;5.074;2022-07-03T00:44:31;14.80;83.50
44111;DHT22;29774;52.664;5.074;2022-07-03T00:46:59;14.70;83.40
44111;DHT22;29774;52.664;5.074;2022-07-03T00:49:27;14.70;82.80
44111;DHT22;29774;52.664;5.074;2022-07-03T00:51:56;14.80;83.10
44111;DHT22;29774;52.664;5.074;2022-07-03T00:54:24;14.70;82.60
44111;DHT22;29774;52.664;5.074;2022-07-03T00:56:54;14.70;83.00
44111;DHT22;29774;52.664;5.074;2022-07-03T00:59:20;14.70;82.30
44111;DHT22;29774;52.664;5.074;2022-07-03T01:01:47;14.70;83.10
44111;DHT22;29774;52.664;5.074;2022-07-03T01:07:46;14.70;83.00
44111;DHT22;29774;52.664;5.074;2022-07-03T01:13:09;14.80;83.20
44111;DHT22;29774;52.664;5.074;2022-07-03T01:20:44;15.20;81.00
44111;DHT22;29774;52.664;5.074;2022-07-03T01:23:24;15.20;81.50
44111;DHT22;29774;52.664;5.074;2022-07-03T01:25:56;15.30;81.40
44111;DHT22;29774;52.664;5.074;2022-07-03T01:28:27;15.30;79.50
44111;DHT22;29774;52.664;5.074;2022-07-03T01:30:54;15.50;79.00
44111;DHT22;29774;52.664;5.074;2022-07-03T01:33:24;15.50;78.40
44111;DHT22;29774;52.664;5.074;2022-07-03T01:36:03;15.50;79.90
44111;DHT22;29774;52.664;5.074;2022-07-03T01:38:34;15.60;78.40
44111;DHT22;29774;52.664;5.074;2022-07-03T01:41:02;15.90;77.90
44111;DHT22;29774;52.664;5.074;2022-07-03T01:43:30;16.10;76.40
44111;DHT22;29774;52.664;5.074;2022-07-03T01:45:58;16.00;76.30
44111;DHT22;29774;52.664;5.074;2022-07-03T01:48:25;16.20;77.60
44111;DHT22;29774;52.664;5.074;2022-07-03T01:50:51;16.40;73.70
44111;DHT22;29774;52.664;5.074;2022-07-03T01:53:18;16.70;72.50
44111;DHT22;29774;52.664;5.074;2022-07-03T01:55:44;17.00;71.70
44111;DHT22;29774;52.664;5.074;2022-07-03T01:58:11;17.20;70.40
44111;DHT22;29774;52.664;5.074;2022-07-03T02:00:47;16.90;75.00
44111;DHT22;29774;52.664;5.074;2022-07-03T02:03:24;16.80;71.10
44111;DHT22;29774;52.664;5.074;2022-07-03T02:06:09;16.60;71.00
44111;DHT22;29774;52.664;5.074;2022-07-03T02:11:24;17.10;69.40
44111;DHT22;29774;52.664;5.074;2022-07-03T02:19:09;16.80;70.50
44111;DHT22;29774;52.664;5.074;2022-07-03T02:21:40;17.30;69.50
44111;DHT22;29774;52.664;5.074;2022-07-03T02:24:21;17.70;73.30
44111;DHT22;29774;52.664;5.074;2022-07-03T02:26:56;17.50;68.20
44111;DHT22;29774;52.664;5.074;2022-07-03T02:29:41;17.40;70.80
44111;DHT22;29774;52.664;5.074;2022-07-03T02:32:13;17.30;69.00
44111;DHT22;29774;52.664;5.074;2022-07-03T02:34:44;17.20;71.40
44111;DHT22;29774;52.664;5.074;2022-07-03T02:37:12;17.00;70.90
44111;DHT22;29774;52.664;5.074;2022-07-03T02:39:57;16.70;71.90
44111;DHT22;29774;52.664;5.074;2022-07-03T02:45:17;17.20;71.40
44111;DHT22;29774;52.664;5.074;2022-07-03T02:48:00;17.40;71.20
44111;DHT22;29774;52.664;5.074;2022-07-03T02:50:28;17.20;71.80
44111;DHT22;29774;52.664;5.074;2022-07-03T02:53:11;17.00;71.70
44111;DHT22;29774;52.664;5.074;2022-07-03T02:55:44;16.90;72.80
44111;DHT22;29774;52.664;5.074;2022-07-03T03:04:31;16.70;74.00
44111;DHT22;29774;52.664;5.074;2022-07-03T03:07:14;16.50;74.80
44111;DHT22;29774;52.664;5.074;2022-07-03T03:09:47;16.40;75.60
44111;DHT22;29774;52.664;5.074;2022-07-03T03:12:13;16.60;74.80
44111;DHT22;29774;52.664;5.074;2022-07-03T03:14:44;16.30;74.60
44111;DHT22;29774;52.664;5.074;2022-07-03T03:17:16;16.40;75.80
44111;DHT22;29774;52.664;5.074;2022-07-03T03:19:46;16.90;75.40
44111;DHT22;29774;52.664;5.074;2022-07-03T03:25:10;16.40;75.80
44111;DHT22;29774;52.664;5.074;2022-07-03T03:27:35;16.40;75.90
44111;DHT22;29774;52.664;5.074;2022-07-03T03:30:01;16.20;76.30
44111;DHT22;29774;52.664;5.074;2022-07-03T03:32:27;16.00;77.10
44111;DHT22;29774;52.664;5.074;2022-07-03T03:34:54;16.00;77.60
44111;DHT22;29774;52.664;5.074;2022-07-03T03:37:20;16.00;77.60
44111;DHT22;29774;52.664;5.074;2022-07-03T03:39:45;16.10;77.60
44111;DHT22;29774;52.664;5.074;2022-07-03T03:42:11;16.20;77.70
44111;DHT22;29774;52.664;5.074;2022-07-03T03:44:37;16.10;77.80
44111;DHT22;29774;52.664;5.074;2022-07-03T03:47:03;16.10;78.30
44111;DHT22;29774;52.664;5.074;2022-07-03T03:49:29;16.10;78.00
44111;DHT22;29774;52.664;5.074;2022-07-03T03:51:55;16.00;78.50
44111;DHT22;29774;52.664;5.074;2022-07-03T03:54:21;16.00;78.20
44111;DHT22;29774;52.664;5.074;2022-07-03T03:56:47;16.20;77.60
44111;DHT22;29774;52.664;5.074;2022-07-03T03:59:12;16.10;78.20
44111;DHT22;29774;52.664;5.074;2022-07-03T04:01:38;16.00;78.20
44111;DHT22;29774;52.664;5.074;2022-07-03T04:04:04;16.00;78.80
44111;DHT22;29774;52.664;5.074;2022-07-03T04:06:29;15.70;79.30
44111;DHT22;29774;52.664;5.074;2022-07-03T04:08:55;15.80;79.30
44111;DHT22;29774;52.664;5.074;2022-07-03T04:11:20;15.70;79.40
44111;DHT22;29774;52.664;5.074;2022-07-03T04:13:46;16.20;78.60
44111;DHT22;29774;52.664;5.074;2022-07-03T04:16:12;16.00;78.80
44111;DHT22;29774;52.664;5.074;2022-07-03T04:18:38;15.80;79.20
44111;DHT22;29774;52.664;5.074;2022-07-03T04:21:04;15.80;80.20
44111;DHT22;29774;52.664;5.074;2022-07-03T04:23:30;15.80;80.20
44111;DHT22;29774;52.664;5.074;2022-07-03T04:25:55;16.10;79.50
44111;DHT22;29774;52.664;5.074;2022-07-03T04:28:27;16.00;79.40
44111;DHT22;29774;52.664;5.074;2022-07-03T04:30:52;16.00;79.60
44111;DHT22;29774;52.664;5.074;2022-07-03T04:33:18;16.10;80.00
44111;DHT22;29774;52.664;5.074;2022-07-03T04:35:43;16.50;79.40
44111;DHT22;29774;52.664;5.074;2022-07-03T04:38:09;16.50;79.10
44111;DHT22;29774;52.664;5.074;2022-07-03T04:40:34;17.10;78.40
44111;DHT22;29774;52.664;5.074;2022-07-03T04:43:00;17.50;75.40
44111;DHT22;29774;52.664;5.074;2022-07-03T04:45:26;17.60;75.10
44111;DHT22;29774;52.664;5.074;2022-07-03T04:47:51;17.40;75.90
44111;DHT22;29774;52.664;5.074;2022-07-03T04:50:17;17.10;76.80
44111;DHT22;29774;52.664;5.074;2022-07-03T04:52:42;17.20;76.80
44111;DHT22;29774;52.664;5.074;2022-07-03T04:55:08;17.20;77.00
44111;DHT22;29774;52.664;5.074;2022-07-03T04:57:35;17.10;77.80
44111;DHT22;29774;52.664;5.074;2022-07-03T05:00:01;17.00;78.40
44111;DHT22;29774;52.664;5.074;2022-07-03T05:02:26;17.30;77.90
44111;DHT22;29774;52.664;5.074;2022-07-03T05:04:52;18.10;74.90
44111;DHT22;29774;52.664;5.074;2022-07-03T05:07:18;18.30;73.80
44111;DHT22;29774;52.664;5.074;2022-07-03T05:09:43;18.80;72.00
44111;DHT22;29774;52.664;5.074;2022-07-03T05:12:09;19.80;68.10
44111;DHT22;29774;52.664;5.074;2022-07-03T05:14:34;19.00;71.10
44111;DHT22;29774;52.664;5.074;2022-07-03T05:17:00;18.30;74.00
44111;DHT22;29774;52.664;5.074;2022-07-03T05:19:25;18.20;75.00
44111;DHT22;29774;52.664;5.074;2022-07-03T05:21:51;18.80;72.00
44111;DHT22;29774;52.664;5.074;2022-07-03T05:24:17;18.70;73.00
44111;DHT22;29774;52.664;5.074;2022-07-03T05:26:42;19.80;68.70
44111;DHT22;29774;52.664;5.074;2022-07-03T05:29:08;19.30;71.10
44111;DHT22;29774;52.664;5.074;2022-07-03T05:31:33;18.70;73.70
44111;DHT22;29774;52.664;5.074;2022-07-03T05:33:59;19.10;71.50
44111;DHT22;29774;52.664;5.074;2022-07-03T05:36:24;18.70;74.30
44111;DHT22;29774;52.664;5.074;2022-07-03T05:38:50;19.00;73.40
44111;DHT22;29774;52.664;5.074;2022-07-03T05:41:34;19.10;72.80
44111;DHT22;29774;52.664;5.074;2022-07-03T05:44:00;19.70;70.20
44111;DHT22;29774;52.664;5.074;2022-07-03T05:46:25;19.20;72.90
44111;DHT22;29774;52.664;5.074;2022-07-03T05:48:51;19.70;72.10
44111;DHT22;29774;52.664;5.074;2022-07-03T05:51:16;20.10;68.40
44111;DHT22;29774;52.664;5.074;2022-07-03T05:53:42;20.80;64.40
44111;DHT22;29774;52.664;5.074;2022-07-03T05:56:07;21.20;64.20
44111;DHT22;29774;52.664;5.074;2022-07-03T05:58:33;21.20;62.00
44111;DHT22;29774;52.664;5.074;2022-07-03T06:00:58;21.10;67.00
44111;DHT22;29774;52.664;5.074;2022-07-03T06:03:24;21.30;62.10
44111;DHT22;29774;52.664;5.074;2022-07-03T06:05:50;21.60;61.20
44111;DHT22;29774;52.664;5.074;2022-07-03T06:08:15;21.80;59.90
44111;DHT22;29774;52.664;5.074;2022-07-03T06:10:41;21.90;59.50
44111;DHT22;29774;52.664;5.074;2022-07-03T06:13:06;21.60;61.50
44111;DHT22;29774;52.664;5.074;2022-07-03T06:15:32;21.40;61.60
44111;DHT22;29774;52.664;5.074;2022-07-03T06:17:58;21.40;61.30
44111;DHT22;29774;52.664;5.074;2022-07-03T06:20:23;21.20;62.50
44111;DHT22;29774;52.664;5.074;2022-07-03T06:22:49;21.20;67.90
44111;DHT22;29774;52.664;5.074;2022-07-03T06:25:14;21.50;64.30
44111;DHT22;29774;52.664;5.074;2022-07-03T06:27:40;21.70;62.50
44111;DHT22;29774;52.664;5.074;2022-07-03T06:30:06;22.10;63.10
44111;DHT22;29774;52.664;5.074;2022-07-03T06:32:32;22.20;59.70
44111;DHT22;29774;52.664;5.074;2022-07-03T06:34:57;22.20;59.10
44111;DHT22;29774;52.664;5.074;2022-07-03T06:37:23;22.30;61.20
44111;DHT22;29774;52.664;5.074;2022-07-03T06:39:48;22.30;58.30
44111;DHT22;29774;52.664;5.074;2022-07-03T06:42:14;22.40;60.30
44111;DHT22;29774;52.664;5.074;2022-07-03T06:44:40;22.30;58.40
44111;DHT22;29774;52.664;5.074;2022-07-03T06:47:06;22.30;58.80
44111;DHT22;29774;52.664;5.074;2022-07-03T06:49:33;22.30;59.20
44111;DHT22;29774;52.664;5.074;2022-07-03T06:51:59;22.30;59.60
44111;DHT22;29774;52.664;5.074;2022-07-03T06:54:25;22.20;58.30
44111;DHT22;29774;52.664;5.074;2022-07-03T06:56:51;22.20;59.20
44111;DHT22;29774;52.664;5.074;2022-07-03T06:59:16;22.20;58.70
44111;DHT22;29774;52.664;5.074;2022-07-03T07:01:42;22.60;61.20
44111;DHT22;29774;52.664;5.074;2022-07-03T07:04:07;22.70;58.50
44111;DHT22;29774;52.664;5.074;2022-07-03T07:06:33;22.60;57.70
44111;DHT22;29774;52.664;5.074;2022-07-03T07:08:59;22.50;59.30
44111;DHT22;29774;52.664;5.074;2022-07-03T07:11:24;22.60;58.20
44111;DHT22;29774;52.664;5.074;2022-07-03T07:13:50;22.70;57.90
44111;DHT22;29774;52.664;5.074;2022-07-03T07:16:15;22.50;59.10
44111;DHT22;29774;52.664;5.074;2022-07-03T07:18:42;22.50;57.70
44111;DHT22;29774;52.664;5.074;2022-07-03T07:21:09;22.40;59.00
44111;DHT22;29774;52.664;5.074;2022-07-03T07:23:35;22.50;57.50
44111;DHT22;29774;52.664;5.074;2022-07-03T07:26:01;22.70;57.90
44111;DHT22;29774;52.664;5.074;2022-07-03T07:28:26;22.50;57.60
44111;DHT22;29774;52.664;5.074;2022-07-03T07:30:52;22.70;58.60
44111;DHT22;29774;52.664;5.074;2022-07-03T07:33:20;22.60;57.40
44111;DHT22;29774;52.664;5.074;2022-07-03T07:35:46;22.50;58.70
44111;DHT22;29774;52.664;5.074;2022-07-03T07:38:12;22.80;56.90
44111;DHT22;29774;52.664;5.074;2022-07-03T07:40:38;22.70;57.80
44111;DHT22;29774;52.664;5.074;2022-07-03T07:43:03;22.70;57.40
44111;DHT22;29774;52.664;5.074;2022-07-03T07:45:29;22.70;57.50
44111;DHT22;29774;52.664;5.074;2022-07-03T07:47:55;22.80;56.80
44111;DHT22;29774;52.664;5.074;2022-07-03T07:50:20;22.80;57.10
44111;DHT22;29774;52.664;5.074;2022-07-03T07:52:46;22.70;57.10
44111;DHT22;29774;52.664;5.074;2022-07-03T07:55:11;22.90;56.70
44111;DHT22;29774;52.664;5.074;2022-07-03T07:57:38;22.80;56.90
44111;DHT22;29774;52.664;5.074;2022-07-03T08:00:09;22.80;56.90
44111;DHT22;29774;52.664;5.074;2022-07-03T08:02:36;22.80;56.90
44111;DHT22;29774;52.664;5.074;2022-07-03T08:05:21;22.80;56.90
44111;DHT22;29774;52.664;5.074;2022-07-03T08:08:15;22.90;57.40
44111;DHT22;29774;52.664;5.074;2022-07-03T08:10:49;23.00;56.50
44111;DHT22;29774;52.664;5.074;2022-07-03T08:13:17;23.00;56.60
44111;DHT22;29774;52.664;5.074;2022-07-03T08:15:43;23.00;56.80
44111;DHT22;29774;52.664;5.074;2022-07-03T08:18:09;23.20;56.20
44111;DHT22;29774;52.664;5.074;2022-07-03T08:20:36;23.20;56.50
44111;DHT22;29774;52.664;5.074;2022-07-03T08:23:02;23.00;56.60
44111;DHT22;29774;52.664;5.074;2022-07-03T08:25:28;23.00;56.90
44111;DHT22;29774;52.664;5.074;2022-07-03T08:27:55;23.00;56.90
44111;DHT22;29774;52.664;5.074;2022-07-03T08:30:21;23.00;56.80
44111;DHT22;29774;52.664;5.074;2022-07-03T08:32:48;23.00;56.80
44111;DHT22;29774;52.664;5.074;2022-07-03T08:35:14;23.10;56.80
44111;DHT22;29774;52.664;5.074;2022-07-03T08:37:39;23.10;56.40
44111;DHT22;29774;52.664;5.074;2022-07-03T08:40:13;23.10;56.70
44111;DHT22;29774;52.664;5.074;2022-07-03T08:42:43;23.10;56.50
44111;DHT22;29774;52.664;5.074;2022-07-03T08:45:14;23.20;56.30
44111;DHT22;29774;52.664;5.074;2022-07-03T08:47:43;23.20;56.40
44111;DHT22;29774;52.664;5.074;2022-07-03T08:50:11;23.10;56.80
44111;DHT22;29774;52.664;5.074;2022-07-03T08:52:37;23.10;56.80
44111;DHT22;29774;52.664;5.074;2022-07-03T08:55:03;23.10;56.70
44111;DHT22;29774;52.664;5.074;2022-07-03T08:57:31;23.10;56.70
44111;DHT22;29774;52.664;5.074;2022-07-03T08:59:59;23.20;56.60
44111;DHT22;29774;52.664;5.074;2022-07-03T09:02:26;23.10;57.00
44111;DHT22;29774;52.664;5.074;2022-07-03T09:04:52;23.20;56.60
44111;DHT22;29774;52.664;5.074;2022-07-03T09:07:18;23.40;55.90
44111;DHT22;29774;52.664;5.074;2022-07-03T09:09:45;23.20;56.50
44111;DHT22;29774;52.664;5.074;2022-07-03T09:12:11;23.20;56.30
44111;DHT22;29774;52.664;5.074;2022-07-03T09:14:37;23.20;56.40
44111;DHT22;29774;52.664;5.074;2022-07-03T09:17:06;23.40;55.80
44111;DHT22;29774;52.664;5.074;2022-07-03T09:20:00;23.40;55.90
44111;DHT22;29774;52.664;5.074;2022-07-03T09:22:28;23.30;56.00
44111;DHT22;29774;52.664;5.074;2022-07-03T09:27:28;23.40;55.80
44111;DHT22;29774;52.664;5.074;2022-07-03T09:30:02;23.50;55.70
44111;DHT22;29774;52.664;5.074;2022-07-03T09:32:33;23.50;55.10
44111;DHT22;29774;52.664;5.074;2022-07-03T09:35:26;23.40;56.00
44111;DHT22;29774;52.664;5.074;2022-07-03T09:38:00;23.40;56.10
44111;DHT22;29774;52.664;5.074;2022-07-03T09:40:46;23.50;55.80
44111;DHT22;29774;52.664;5.074;2022-07-03T09:43:12;23.50;56.00
44111;DHT22;29774;52.664;5.074;2022-07-03T09:45:55;23.50;55.80
44111;DHT22;29774;52.664;5.074;2022-07-03T09:48:37;23.50;55.80
44111;DHT22;29774;52.664;5.074;2022-07-03T09:51:20;23.50;55.80
44111;DHT22;29774;52.664;5.074;2022-07-03T09:53:55;23.60;55.50
44111;DHT22;29774;52.664;5.074;2022-07-03T09:56:24;23.90;54.80
44111;DHT22;29774;52.664;5.074;2022-07-03T09:59:19;23.60;55.40
44111;DHT22;29774;52.664;5.074;2022-07-03T10:01:46;23.60;55.60
44111;DHT22;29774;52.664;5.074;2022-07-03T10:06:57;23.60;55.80
44111;DHT22;29774;52.664;5.074;2022-07-03T10:11:50;23.60;55.80
44111;DHT22;29774;52.664;5.074;2022-07-03T10:14:18;23.60;55.70
44111;DHT22;29774;52.664;5.074;2022-07-03T10:16:44;23.70;55.60
44111;DHT22;29774;52.664;5.074;2022-07-03T10:19:15;23.60;55.70
44111;DHT22;29774;52.664;5.074;2022-07-03T10:21:42;23.80;55.20
44111;DHT22;29774;52.664;5.074;2022-07-03T10:24:08;23.70;55.60
44111;DHT22;29774;52.664;5.074;2022-07-03T10:26:36;23.70;55.80
44111;DHT22;29774;52.664;5.074;2022-07-03T10:29:02;23.70;55.60
44111;DHT22;29774;52.664;5.074;2022-07-03T10:31:28;23.70;55.40
44111;DHT22;29774;52.664;5.074;2022-07-03T10:33:54;23.80;55.30
44111;DHT22;29774;52.664;5.074;2022-07-03T10:36:22;24.00;54.60
44111;DHT22;29774;52.664;5.074;2022-07-03T10:38:48;23.80;55.40
44111;DHT22;29774;52.664;5.074;2022-07-03T10:44:24;23.70;55.80
44111;DHT22;29774;52.664;5.074;2022-07-03T10:50:08;23.70;55.40
44111;DHT22;29774;52.664;5.074;2022-07-03T10:52:34;23.70;55.50
44111;DHT22;29774;52.664;5.074;2022-07-03T10:54:59;23.80;55.50
44111;DHT22;29774;52.664;5.074;2022-07-03T10:57:26;23.90;55.10
44111;DHT22;29774;52.664;5.074;2022-07-03T11:02:24;23.70;55.70
44111;DHT22;29774;52.664;5.074;2022-07-03T11:07:31;23.70;55.80
44111;DHT22;29774;52.664;5.074;2022-07-03T11:13:31;23.70;55.70
44111;DHT22;29774;52.664;5.074;2022-07-03T11:15:53;23.80;55.40
44111;DHT22;29774;52.664;5.074;2022-07-03T11:23:17;23.80;55.50
44111;DHT22;29774;52.664;5.074;2022-07-03T11:25:46;23.80;55.50
44111;DHT22;29774;52.664;5.074;2022-07-03T11:41:43;23.80;55.40
44111;DHT22;29774;52.664;5.074;2022-07-03T11:44:14;24.00;54.70
44111;DHT22;29774;52.664;5.074;2022-07-03T11:46:41;23.90;55.20
44111;DHT22;29774;52.664;5.074;2022-07-03T11:49:18;23.80;55.40
44111;DHT22;29774;52.664;5.074;2022-07-03T11:51:55;24.00;55.00
44111;DHT22;29774;52.664;5.074;2022-07-03T11:54:50;24.10;54.90
44111;DHT22;29774;52.664;5.074;2022-07-03T11:57:16;24.00;55.10
44111;DHT22;29774;52.664;5.074;2022-07-03T11:59:41;24.00;55.10
44111;DHT22;29774;52.664;5.074;2022-07-03T12:02:07;24.00;55.00
44111;DHT22;29774;52.664;5.074;2022-07-03T12:04:33;24.00;55.20
44111;DHT22;29774;52.664;5.074;2022-07-03T12:07:00;23.90;55.40
44111;DHT22;29774;52.664;5.074;2022-07-03T12:09:31;24.00;54.90
44111;DHT22;29774;52.664;5.074;2022-07-03T12:14:49;24.10;54.90
44111;DHT22;29774;52.664;5.074;2022-07-03T12:19:51;24.20;53.30
44111;DHT22;29774;52.664;5.074;2022-07-03T12:24:58;24.20;54.70
44111;DHT22;29774;52.664;5.074;2022-07-03T12:27:24;24.10;54.80
44111;DHT22;29774;52.664;5.074;2022-07-03T12:29:51;24.10;54.80
44111;DHT22;29774;52.664;5.074;2022-07-03T12:32:17;24.00;55.20
44111;DHT22;29774;52.664;5.074;2022-07-03T12:34:42;24.00;55.30
44111;DHT22;29774;52.664;5.074;2022-07-03T12:37:08;24.10;55.20
44111;DHT22;29774;52.664;5.074;2022-07-03T12:39:46;24.00;55.30
44111;DHT22;29774;52.664;5.074;2022-07-03T12:42:22;24.00;55.30
44111;DHT22;29774;52.664;5.074;2022-07-03T12:45:32;24.00;55.20
44111;DHT22;29774;52.664;5.074;2022-07-03T12:48:02;24.10;54.90
44111;DHT22;29774;52.664;5.074;2022-07-03T12:50:48;24.20;54.80
44111;DHT22;29774;52.664;5.074;2022-07-03T12:53:32;24.10;54.90
44111;DHT22;29774;52.664;5.074;2022-07-03T12:56:05;24.20;53.70
44111;DHT22;29774;52.664;5.074;2022-07-03T12:58:38;24.20;54.50
44111;DHT22;29774;52.664;5.074;2022-07-03T13:01:31;24.40;54.10
44111;DHT22;29774;52.664;5.074;2022-07-03T13:04:02;24.30;54.40
44111;DHT22;29774;52.664;5.074;2022-07-03T13:06:28;24.30;53.50
44111;DHT22;29774;52.664;5.074;2022-07-03T13:08:59;24.20;54.70
44111;DHT22;29774;52.664;5.074;2022-07-03T13:11:30;24.20;51.80
44111;DHT22;29774;52.664;5.074;2022-07-03T13:14:10;24.30;54.50
44111;DHT22;29774;52.664;5.074;2022-07-03T13:16:47;24.30;54.60
44111;DHT22;29774;52.664;5.074;2022-07-03T13:19:15;24.20;54.80
44111;DHT22;29774;52.664;5.074;2022-07-03T13:21:42;24.20;54.80
44111;DHT22;29774;52.664;5.074;2022-07-03T13:24:10;24.30;53.90
44111;DHT22;29774;52.664;5.074;2022-07-03T13:26:36;24.20;54.60
44111;DHT22;29774;52.664;5.074;2022-07-03T13:29:03;24.40;54.30
44111;DHT22;29774;52.664;5.074;2022-07-03T13:31:28;24.50;53.80
44111;DHT22;29774;52.664;5.074;2022-07-03T13:33:55;24.50;54.00
44111;DHT22;29774;52.664;5.074;2022-07-03T13:36:21;24.20;54.70
44111;DHT22;29774;52.664;5.074;2022-07-03T13:38:47;24.30;54.70
44111;DHT22;29774;52.664;5.074;2022-07-03T13:41:14;24.50;54.10
44111;DHT22;29774;52.664;5.074;2022-07-03T13:43:39;24.50;54.00
44111;DHT22;29774;52.664;5.074;2022-07-03T13:46:05;24.60;53.40
44111;DHT22;29774;52.664;5.074;2022-07-03T13:48:30;24.60;53.90
44111;DHT22;29774;52.664;5.074;2022-07-03T13:50:56;24.50;53.40
44111;DHT22;29774;52.664;5.074;2022-07-03T13:53:22;24.50;54.10
44111;DHT22;29774;52.664;5.074;2022-07-03T13:55:48;24.30;54.60
44111;DHT22;29774;52.664;5.074;2022-07-03T13:58:13;24.50;54.10
44111;DHT22;29774;52.664;5.074;2022-07-03T14:00:39;24.30;54.80
44111;DHT22;29774;52.664;5.074;2022-07-03T14:03:04;24.20;54.60
44111;DHT22;29774;52.664;5.074;2022-07-03T14:05:30;24.30;54.80
44111;DHT22;29774;52.664;5.074;2022-07-03T14:07:56;24.30;54.50
44111;DHT22;29774;52.664;5.074;2022-07-03T14:10:22;24.50;54.20
44111;DHT22;29774;52.664;5.074;2022-07-03T14:12:50;24.40;54.60
44111;DHT22;29774;52.664;5.074;2022-07-03T14:15:16;24.50;52.90
44111;DHT22;29774;52.664;5.074;2022-07-03T14:17:42;24.20;55.30
44111;DHT22;29774;52.664;5.074;2022-07-03T14:20:09;24.30;54.80
44111;DHT22;29774;52.664;5.074;2022-07-03T14:22:35;24.50;54.60
44111;DHT22;29774;52.664;5.074;2022-07-03T14:25:00;24.50;54.50
44111;DHT22;29774;52.664;5.074;2022-07-03T14:27:26;24.50;54.40
44111;DHT22;29774;52.664;5.074;2022-07-03T14:30:11;24.60;52.20
44111;DHT22;29774;52.664;5.074;2022-07-03T14:32:55;24.60;54.20
44111;DHT22;29774;52.664;5.074;2022-07-03T14:35:20;24.60;54.50
44111;DHT22;29774;52.664;5.074;2022-07-03T14:37:46;24.50;54.80
44111;DHT22;29774;52.664;5.074;2022-07-03T14:40:12;24.60;54.60
44111;DHT22;29774;52.664;5.074;2022-07-03T14:42:37;24.70;54.40
44111;DHT22;29774;52.664;5.074;2022-07-03T14:45:04;24.70;52.90
44111;DHT22;29774;52.664;5.074;2022-07-03T14:47:30;24.70;54.20
44111;DHT22;29774;52.664;5.074;2022-07-03T14:49:55;24.70;54.20
44111;DHT22;29774;52.664;5.074;2022-07-03T14:52:21;24.70;54.20
44111;DHT22;29774;52.664;5.074;2022-07-03T14:54:47;24.70;54.40
44111;DHT22;29774;52.664;5.074;2022-07-03T14:57:31;24.60;54.10
44111;DHT22;29774;52.664;5.074;2022-07-03T15:05:16;24.80;54.40
44111;DHT22;29774;52.664;5.074;2022-07-03T15:08:05;24.80;54.50
44111;DHT22;29774;52.664;5.074;2022-07-03T15:10:32;24.80;54.40
44111;DHT22;29774;52.664;5.074;2022-07-03T15:13:00;24.90;54.30
44111;DHT22;29774;52.664;5.074;2022-07-03T15:15:26;24.90;54.20
44111;DHT22;29774;52.664;5.074;2022-07-03T15:17:54;24.80;54.50
44111;DHT22;29774;52.664;5.074;2022-07-03T15:20:22;24.90;54.50
44111;DHT22;29774;52.664;5.074;2022-07-03T15:22:51;24.90;54.40
44111;DHT22;29774;52.664;5.074;2022-07-03T15:25:18;24.90;54.40
44111;DHT22;29774;52.664;5.074;2022-07-03T15:27:52;24.90;54.20
44111;DHT22;29774;52.664;5.074;2022-07-03T15:30:18;24.90;54.20
44111;DHT22;29774;52.664;5.074;2022-07-03T15:32:49;24.90;52.80
44111;DHT22;29774;52.664;5.074;2022-07-03T15:35:16;24.90;54.20
44111;DHT22;29774;52.664;5.074;2022-07-03T15:40:34;24.80;52.10
44111;DHT22;29774;52.664;5.074;2022-07-03T15:43:13;24.90;54.20
44111;DHT22;29774;52.664;5.074;2022-07-03T15:48:29;24.80;54.30
44111;DHT22;29774;52.664;5.074;2022-07-03T15:54:31;25.00;54.10
44111;DHT22;29774;52.664;5.074;2022-07-03T15:57:03;25.00;54.10
44111;DHT22;29774;52.664;5.074;2022-07-03T15:59:35;25.00;54.10
44111;DHT22;29774;52.664;5.074;2022-07-03T16:02:02;25.10;53.70
44111;DHT22;29774;52.664;5.074;2022-07-03T16:05:03;25.00;54.00
44111;DHT22;29774;52.664;5.074;2022-07-03T16:07:30;25.10;52.00
44111;DHT22;29774;52.664;5.074;2022-07-03T16:09:59;25.20;53.70
44111;DHT22;29774;52.664;5.074;2022-07-03T16:12:25;25.10;53.90
44111;DHT22;29774;52.664;5.074;2022-07-03T16:14:54;25.10;53.70
44111;DHT22;29774;52.664;5.074;2022-07-03T16:17:21;25.00;50.80
44111;DHT22;29774;52.664;5.074;2022-07-03T16:19:49;25.00;53.80
44111;DHT22;29774;52.664;5.074;2022-07-03T16:22:16;25.10;53.70
44111;DHT22;29774;52.664;5.074;2022-07-03T16:24:43;25.10;54.00
44111;DHT22;29774;52.664;5.074;2022-07-03T16:27:13;25.20;53.80
44111;DHT22;29774;52.664;5.074;2022-07-03T16:29:40;25.10;51.90
44111;DHT22;29774;52.664;5.074;2022-07-03T16:32:12;25.20;53.60
44111;DHT22;29774;52.664;5.074;2022-07-03T16:37:36;25.20;53.70
44111;DHT22;29774;52.664;5.074;2022-07-03T16:40:04;25.20;53.60
44111;DHT22;29774;52.664;5.074;2022-07-03T16:42:34;25.20;53.70
44111;DHT22;29774;52.664;5.074;2022-07-03T16:45:07;25.20;53.80
44111;DHT22;29774;52.664;5.074;2022-07-03T16:47:47;25.10;53.90
44111;DHT22;29774;52.664;5.074;2022-07-03T16:50:21;25.20;53.70
44111;DHT22;29774;52.664;5.074;2022-07-03T16:52:51;25.20;53.80
44111;DHT22;29774;52.664;5.074;2022-07-03T16:55:18;25.10;52.60
44111;DHT22;29774;52.664;5.074;2022-07-03T16:57:48;25.00;54.20
44111;DHT22;29774;52.664;5.074;2022-07-03T17:00:23;25.20;53.60
44111;DHT22;29774;52.664;5.074;2022-07-03T17:02:50;25.10;53.90
44111;DHT22;29774;52.664;5.074;2022-07-03T17:05:18;25.20;53.70
44111;DHT22;29774;52.664;5.074;2022-07-03T17:07:48;25.20;53.70
44111;DHT22;29774;52.664;5.074;2022-07-03T17:10:16;25.10;53.70
44111;DHT22;29774;52.664;5.074;2022-07-03T17:12:44;25.10;53.70
44111;DHT22;29774;52.664;5.074;2022-07-03T17:15:13;25.20;53.60
44111;DHT22;29774;52.664;5.074;2022-07-03T17:18:02;25.20;53.40